Terminal Aerodrome Forecast
Issued by NWS

Home | Current Version | Previous Version | Text Only | Print | Product List | Glossary On
Versions: 1 2 3 4 5 6 7 8 9 10 11 12 13 14 15 16 17 18 19 20 21
000
FTUS41 KALY 290535
TAFPSF
TAF
KPSF 290535Z 2906/3006 VRB03KT P6SM SCT250
     FM290700 00000KT 3SM BR SCT003
      TEMPO 2907/2909 1SM BR BKN003
     FM290900 00000KT 1SM BR BKN003
      TEMPO 2909/2912 1/4SM FG VV001
     FM291300 VRB03KT P6SM SCT250
     FM291700 25006KT P6SM FEW060 SCT250
     FM300100 00000KT P6SM SKC=

USA.gov is the U.S. government's official web portal to all federal, state and local government web resources and services.